sensor_id;sensor_type;location;lat;lon;timestamp;temperature;humidity
5850;DHT22;2951;47.712;9.400;2023-03-01T00:01:29;1.00;99.90
5850;DHT22;2951;47.712;9.400;2023-03-01T00:03:56;1.00;99.90
5850;DHT22;2951;47.712;9.400;2023-03-01T00:06:23;1.00;99.90
5850;DHT22;2951;47.712;9.400;2023-03-01T00:08:50;1.00;99.90
5850;DHT22;2951;47.712;9.400;2023-03-01T00:11:18;1.00;99.90
5850;DHT22;2951;47.712;9.400;2023-03-01T00:13:47;1.00;99.90
5850;DHT22;2951;47.712;9.400;2023-03-01T00:16:18;1.00;99.90
5850;DHT22;2951;47.712;9.400;2023-03-01T00:18:45;1.00;99.90
5850;DHT22;2951;47.712;9.400;2023-03-01T00:21:12;1.10;99.90
5850;DHT22;2951;47.712;9.400;2023-03-01T00:23:39;1.10;99.90
5850;DHT22;2951;47.712;9.400;2023-03-01T00:26:06;1.10;99.90
5850;DHT22;2951;47.712;9.400;2023-03-01T00:28:33;1.10;99.90
5850;DHT22;2951;47.712;9.400;2023-03-01T00:31:04;1.10;99.90
5850;DHT22;2951;47.712;9.400;2023-03-01T00:33:31;1.10;99.90
5850;DHT22;2951;47.712;9.400;2023-03-01T00:35:58;1.10;99.90
5850;DHT22;2951;47.712;9.400;2023-03-01T00:38:25;1.10;99.90
5850;DHT22;2951;47.712;9.400;2023-03-01T00:40:51;1.10;99.90
5850;DHT22;2951;47.712;9.400;2023-03-01T00:43:18;1.10;99.90
5850;DHT22;2951;47.712;9.400;2023-03-01T00:45:45;1.10;99.90
5850;DHT22;2951;47.712;9.400;2023-03-01T00:48:12;1.10;99.90
5850;DHT22;2951;47.712;9.400;2023-03-01T00:50:38;1.10;99.90
5850;DHT22;2951;47.712;9.400;2023-03-01T00:53:05;1.20;99.90
5850;DHT22;2951;47.712;9.400;2023-03-01T00:55:31;1.20;99.90
5850;DHT22;2951;47.712;9.400;2023-03-01T00:57:58;1.10;99.90
5850;DHT22;2951;47.712;9.400;2023-03-01T01:00:25;1.10;99.90
5850;DHT22;2951;47.712;9.400;2023-03-01T01:02:54;1.10;99.90
5850;DHT22;2951;47.712;9.400;2023-03-01T01:05:20;1.20;99.90
5850;DHT22;2951;47.712;9.400;2023-03-01T01:07:47;1.20;99.90
5850;DHT22;2951;47.712;9.400;2023-03-01T01:10:14;1.10;99.90
5850;DHT22;2951;47.712;9.400;2023-03-01T01:12:45;1.20;99.90
5850;DHT22;2951;47.712;9.400;2023-03-01T01:15:12;1.10;99.90
5850;DHT22;2951;47.712;9.400;2023-03-01T01:17:40;1.10;99.90
5850;DHT22;2951;47.712;9.400;2023-03-01T01:20:07;1.20;99.90
5850;DHT22;2951;47.712;9.400;2023-03-01T01:22:34;1.20;99.90
5850;DHT22;2951;47.712;9.400;2023-03-01T01:25:00;1.20;99.90
5850;DHT22;2951;47.712;9.400;2023-03-01T01:27:27;1.20;99.90
5850;DHT22;2951;47.712;9.400;2023-03-01T01:29:54;1.20;99.90
5850;DHT22;2951;47.712;9.400;2023-03-01T01:32:20;1.20;99.90
5850;DHT22;2951;47.712;9.400;2023-03-01T01:34:47;1.20;99.90
5850;DHT22;2951;47.712;9.400;2023-03-01T01:37:14;1.20;99.90
5850;DHT22;2951;47.712;9.400;2023-03-01T01:39:40;1.20;99.90
5850;DHT22;2951;47.712;9.400;2023-03-01T01:42:17;1.20;99.90
5850;DHT22;2951;47.712;9.400;2023-03-01T01:44:45;1.20;99.90
5850;DHT22;2951;47.712;9.400;2023-03-01T01:47:14;1.20;99.90
5850;DHT22;2951;47.712;9.400;2023-03-01T01:49:53;1.20;99.90
5850;DHT22;2951;47.712;9.400;2023-03-01T01:52:25;1.20;99.90
5850;DHT22;2951;47.712;9.400;2023-03-01T01:54:54;1.20;99.90
5850;DHT22;2951;47.712;9.400;2023-03-01T01:57:24;1.20;99.90
5850;DHT22;2951;47.712;9.400;2023-03-01T01:59:53;1.20;99.90
5850;DHT22;2951;47.712;9.400;2023-03-01T02:02:20;1.20;99.90
5850;DHT22;2951;47.712;9.400;2023-03-01T02:04:48;1.20;99.90
5850;DHT22;2951;47.712;9.400;2023-03-01T02:07:19;1.30;99.90
5850;DHT22;2951;47.712;9.400;2023-03-01T02:09:47;1.30;99.90
5850;DHT22;2951;47.712;9.400;2023-03-01T02:12:15;1.30;99.90
5850;DHT22;2951;47.712;9.400;2023-03-01T02:14:43;1.30;99.90
5850;DHT22;2951;47.712;9.400;2023-03-01T02:17:11;1.30;99.90
5850;DHT22;2951;47.712;9.400;2023-03-01T02:22:24;1.20;99.90
5850;DHT22;2951;47.712;9.400;2023-03-01T02:25:04;1.30;99.90
5850;DHT22;2951;47.712;9.400;2023-03-01T02:27:40;1.30;99.90
5850;DHT22;2951;47.712;9.400;2023-03-01T02:30:09;1.30;99.90
5850;DHT22;2951;47.712;9.400;2023-03-01T02:32:39;1.30;99.90
5850;DHT22;2951;47.712;9.400;2023-03-01T02:35:09;1.30;99.90
5850;DHT22;2951;47.712;9.400;2023-03-01T02:37:37;1.30;99.90
5850;DHT22;2951;47.712;9.400;2023-03-01T02:40:06;1.30;99.90
5850;DHT22;2951;47.712;9.400;2023-03-01T02:42:35;1.30;99.90
5850;DHT22;2951;47.712;9.400;2023-03-01T02:45:03;1.40;99.90
5850;DHT22;2951;47.712;9.400;2023-03-01T02:47:29;1.30;99.90
5850;DHT22;2951;47.712;9.400;2023-03-01T02:49:56;1.30;99.90
5850;DHT22;2951;47.712;9.400;2023-03-01T02:54:54;1.30;99.90
5850;DHT22;2951;47.712;9.400;2023-03-01T02:57:23;1.30;99.90
5850;DHT22;2951;47.712;9.400;2023-03-01T02:59:49;1.30;99.90
5850;DHT22;2951;47.712;9.400;2023-03-01T03:02:22;1.30;99.90
5850;DHT22;2951;47.712;9.400;2023-03-01T03:05:03;1.30;99.90
5850;DHT22;2951;47.712;9.400;2023-03-01T03:07:33;1.30;99.90
5850;DHT22;2951;47.712;9.400;2023-03-01T03:10:01;1.30;99.90
5850;DHT22;2951;47.712;9.400;2023-03-01T03:12:27;1.30;99.90
5850;DHT22;2951;47.712;9.400;2023-03-01T03:14:54;1.30;99.90
5850;DHT22;2951;47.712;9.400;2023-03-01T03:17:21;1.20;99.90
5850;DHT22;2951;47.712;9.400;2023-03-01T03:19:47;1.20;99.90
5850;DHT22;2951;47.712;9.400;2023-03-01T03:22:14;1.20;99.90
5850;DHT22;2951;47.712;9.400;2023-03-01T03:24:40;1.20;99.90
5850;DHT22;2951;47.712;9.400;2023-03-01T03:27:07;1.20;99.90
5850;DHT22;2951;47.712;9.400;2023-03-01T03:29:34;1.20;99.90
5850;DHT22;2951;47.712;9.400;2023-03-01T03:32:00;1.20;99.90
5850;DHT22;2951;47.712;9.400;2023-03-01T03:34:27;1.10;99.90
5850;DHT22;2951;47.712;9.400;2023-03-01T03:36:56;1.10;99.90
5850;DHT22;2951;47.712;9.400;2023-03-01T03:39:28;1.10;99.90
5850;DHT22;2951;47.712;9.400;2023-03-01T03:42:01;1.10;99.90
5850;DHT22;2951;47.712;9.400;2023-03-01T03:44:28;1.20;99.90
5850;DHT22;2951;47.712;9.400;2023-03-01T03:46:54;1.20;99.90
5850;DHT22;2951;47.712;9.400;2023-03-01T03:49:21;1.10;99.90
5850;DHT22;2951;47.712;9.400;2023-03-01T03:51:47;1.20;99.90
5850;DHT22;2951;47.712;9.400;2023-03-01T03:54:14;1.20;99.90
5850;DHT22;2951;47.712;9.400;2023-03-01T03:56:41;1.10;99.90
5850;DHT22;2951;47.712;9.400;2023-03-01T03:59:08;1.10;99.90
5850;DHT22;2951;47.712;9.400;2023-03-01T04:01:35;1.10;99.90
5850;DHT22;2951;47.712;9.400;2023-03-01T04:04:02;1.10;99.90
5850;DHT22;2951;47.712;9.400;2023-03-01T04:06:30;1.00;99.90
5850;DHT22;2951;47.712;9.400;2023-03-01T04:08:57;1.10;99.90
5850;DHT22;2951;47.712;9.400;2023-03-01T04:11:26;1.10;99.90
5850;DHT22;2951;47.712;9.400;2023-03-01T04:13:55;1.10;99.90
5850;DHT22;2951;47.712;9.400;2023-03-01T04:16:22;1.10;99.90
5850;DHT22;2951;47.712;9.400;2023-03-01T04:18:49;1.10;99.90
5850;DHT22;2951;47.712;9.400;2023-03-01T04:21:16;1.10;99.90
5850;DHT22;2951;47.712;9.400;2023-03-01T04:23:43;1.10;99.90
5850;DHT22;2951;47.712;9.400;2023-03-01T04:26:10;1.00;99.90
5850;DHT22;2951;47.712;9.400;2023-03-01T04:28:38;1.00;99.90
5850;DHT22;2951;47.712;9.400;2023-03-01T04:31:07;1.10;99.90
5850;DHT22;2951;47.712;9.400;2023-03-01T04:33:41;1.10;99.90
5850;DHT22;2951;47.712;9.400;2023-03-01T04:36:08;1.10;99.90
5850;DHT22;2951;47.712;9.400;2023-03-01T04:38:36;1.10;99.90
5850;DHT22;2951;47.712;9.400;2023-03-01T04:41:07;1.10;99.90
5850;DHT22;2951;47.712;9.400;2023-03-01T04:43:34;1.10;99.90
5850;DHT22;2951;47.712;9.400;2023-03-01T04:46:02;1.00;99.90
5850;DHT22;2951;47.712;9.400;2023-03-01T04:48:30;1.00;99.90
5850;DHT22;2951;47.712;9.400;2023-03-01T04:50:57;1.00;99.90
5850;DHT22;2951;47.712;9.400;2023-03-01T04:53:24;1.10;99.90
5850;DHT22;2951;47.712;9.400;2023-03-01T04:55:51;1.10;99.90
5850;DHT22;2951;47.712;9.400;2023-03-01T04:58:18;1.10;99.90
5850;DHT22;2951;47.712;9.400;2023-03-01T05:00:44;1.20;99.90
5850;DHT22;2951;47.712;9.400;2023-03-01T05:03:11;1.20;99.90
5850;DHT22;2951;47.712;9.400;2023-03-01T05:05:38;1.10;99.90
5850;DHT22;2951;47.712;9.400;2023-03-01T05:08:06;1.20;99.90
5850;DHT22;2951;47.712;9.400;2023-03-01T05:10:34;1.20;99.90
5850;DHT22;2951;47.712;9.400;2023-03-01T05:13:02;1.20;99.90
5850;DHT22;2951;47.712;9.400;2023-03-01T05:15:29;1.30;99.90
5850;DHT22;2951;47.712;9.400;2023-03-01T05:17:57;1.30;99.90
5850;DHT22;2951;47.712;9.400;2023-03-01T05:20:28;1.20;99.90
5850;DHT22;2951;47.712;9.400;2023-03-01T05:22:56;1.10;99.90
5850;DHT22;2951;47.712;9.400;2023-03-01T05:25:23;1.10;99.90
5850;DHT22;2951;47.712;9.400;2023-03-01T05:27:50;1.10;99.90
5850;DHT22;2951;47.712;9.400;2023-03-01T05:30:17;1.20;99.90
5850;DHT22;2951;47.712;9.400;2023-03-01T05:32:45;1.20;99.90
5850;DHT22;2951;47.712;9.400;2023-03-01T05:35:12;1.20;99.90
5850;DHT22;2951;47.712;9.400;2023-03-01T05:37:43;1.10;99.90
5850;DHT22;2951;47.712;9.400;2023-03-01T05:40:11;1.20;99.90
5850;DHT22;2951;47.712;9.400;2023-03-01T05:42:49;1.20;99.90
5850;DHT22;2951;47.712;9.400;2023-03-01T05:45:16;1.10;99.90
5850;DHT22;2951;47.712;9.400;2023-03-01T05:47:44;1.10;99.90
5850;DHT22;2951;47.712;9.400;2023-03-01T05:50:12;1.20;99.90
5850;DHT22;2951;47.712;9.400;2023-03-01T05:52:39;1.10;99.90
5850;DHT22;2951;47.712;9.400;2023-03-01T05:55:06;1.20;99.90
5850;DHT22;2951;47.712;9.400;2023-03-01T05:57:33;1.10;99.90
5850;DHT22;2951;47.712;9.400;2023-03-01T05:59:59;1.10;99.90
5850;DHT22;2951;47.712;9.400;2023-03-01T06:02:26;1.20;99.90
5850;DHT22;2951;47.712;9.400;2023-03-01T06:04:53;1.20;99.90
5850;DHT22;2951;47.712;9.400;2023-03-01T06:07:20;1.30;99.90
5850;DHT22;2951;47.712;9.400;2023-03-01T06:09:46;1.30;99.90
5850;DHT22;2951;47.712;9.400;2023-03-01T06:12:13;1.20;99.90
5850;DHT22;2951;47.712;9.400;2023-03-01T06:14:40;1.30;99.90
5850;DHT22;2951;47.712;9.400;2023-03-01T06:17:06;1.30;99.90
5850;DHT22;2951;47.712;9.400;2023-03-01T06:19:33;1.40;99.90
5850;DHT22;2951;47.712;9.400;2023-03-01T06:21:59;1.40;99.90
5850;DHT22;2951;47.712;9.400;2023-03-01T06:24:26;1.40;99.90
5850;DHT22;2951;47.712;9.400;2023-03-01T06:26:55;1.40;99.90
5850;DHT22;2951;47.712;9.400;2023-03-01T06:29:22;1.40;99.90
5850;DHT22;2951;47.712;9.400;2023-03-01T06:31:49;1.30;99.90
5850;DHT22;2951;47.712;9.400;2023-03-01T06:34:16;1.30;99.90
5850;DHT22;2951;47.712;9.400;2023-03-01T06:36:42;1.30;99.90
5850;DHT22;2951;47.712;9.400;2023-03-01T06:39:09;1.30;99.90
5850;DHT22;2951;47.712;9.400;2023-03-01T06:41:36;1.30;99.90
5850;DHT22;2951;47.712;9.400;2023-03-01T06:44:02;1.30;99.90
5850;DHT22;2951;47.712;9.400;2023-03-01T06:46:29;1.40;99.90
5850;DHT22;2951;47.712;9.400;2023-03-01T06:48:56;1.40;99.90
5850;DHT22;2951;47.712;9.400;2023-03-01T06:51:22;1.40;99.90
5850;DHT22;2951;47.712;9.400;2023-03-01T06:53:49;1.40;99.90
5850;DHT22;2951;47.712;9.400;2023-03-01T06:56:16;1.40;99.90
5850;DHT22;2951;47.712;9.400;2023-03-01T06:58:42;1.40;99.90
5850;DHT22;2951;47.712;9.400;2023-03-01T07:01:09;1.40;99.90
5850;DHT22;2951;47.712;9.400;2023-03-01T07:03:36;1.40;99.90
5850;DHT22;2951;47.712;9.400;2023-03-01T07:06:02;1.30;99.90
5850;DHT22;2951;47.712;9.400;2023-03-01T07:08:29;1.40;99.90
5850;DHT22;2951;47.712;9.400;2023-03-01T07:10:56;1.40;99.90
5850;DHT22;2951;47.712;9.400;2023-03-01T07:13:23;1.40;99.90
5850;DHT22;2951;47.712;9.400;2023-03-01T07:15:50;1.40;99.90
5850;DHT22;2951;47.712;9.400;2023-03-01T07:18:17;1.40;99.90
5850;DHT22;2951;47.712;9.400;2023-03-01T07:20:43;1.40;99.90
5850;DHT22;2951;47.712;9.400;2023-03-01T07:23:10;1.40;99.90
5850;DHT22;2951;47.712;9.400;2023-03-01T07:25:37;1.40;99.90
5850;DHT22;2951;47.712;9.400;2023-03-01T07:28:03;1.40;99.90
5850;DHT22;2951;47.712;9.400;2023-03-01T07:30:30;1.30;99.90
5850;DHT22;2951;47.712;9.400;2023-03-01T07:32:57;1.30;99.90
5850;DHT22;2951;47.712;9.400;2023-03-01T07:35:24;1.30;99.90
5850;DHT22;2951;47.712;9.400;2023-03-01T07:37:52;1.30;99.90
5850;DHT22;2951;47.712;9.400;2023-03-01T07:40:19;1.40;99.90
5850;DHT22;2951;47.712;9.400;2023-03-01T07:42:45;1.40;99.90
5850;DHT22;2951;47.712;9.400;2023-03-01T07:45:12;1.40;99.90
5850;DHT22;2951;47.712;9.400;2023-03-01T07:47:39;1.40;99.90
5850;DHT22;2951;47.712;9.400;2023-03-01T07:50:06;1.40;99.90
5850;DHT22;2951;47.712;9.400;2023-03-01T07:52:33;1.50;99.90
5850;DHT22;2951;47.712;9.400;2023-03-01T07:55:00;1.40;99.90
5850;DHT22;2951;47.712;9.400;2023-03-01T07:57:26;1.40;99.90
5850;DHT22;2951;47.712;9.400;2023-03-01T07:59:53;1.40;99.90
5850;DHT22;2951;47.712;9.400;2023-03-01T08:02:19;1.40;99.90
5850;DHT22;2951;47.712;9.400;2023-03-01T08:04:46;1.40;99.90
5850;DHT22;2951;47.712;9.400;2023-03-01T08:07:13;1.50;99.90
5850;DHT22;2951;47.712;9.400;2023-03-01T08:09:40;1.40;99.90
5850;DHT22;2951;47.712;9.400;2023-03-01T08:12:06;1.40;99.90
5850;DHT22;2951;47.712;9.400;2023-03-01T08:14:33;1.50;99.90
5850;DHT22;2951;47.712;9.400;2023-03-01T08:17:00;1.60;99.90
5850;DHT22;2951;47.712;9.400;2023-03-01T08:19:29;1.60;99.90
5850;DHT22;2951;47.712;9.400;2023-03-01T08:21:55;1.60;99.90
5850;DHT22;2951;47.712;9.400;2023-03-01T08:24:24;1.70;99.90
5850;DHT22;2951;47.712;9.400;2023-03-01T08:26:51;1.60;99.90
5850;DHT22;2951;47.712;9.400;2023-03-01T08:29:18;1.70;99.90
5850;DHT22;2951;47.712;9.400;2023-03-01T08:31:45;1.60;99.90
5850;DHT22;2951;47.712;9.400;2023-03-01T08:34:13;1.60;99.90
5850;DHT22;2951;47.712;9.400;2023-03-01T08:36:41;1.60;99.90
5850;DHT22;2951;47.712;9.400;2023-03-01T08:39:09;1.60;99.90
5850;DHT22;2951;47.712;9.400;2023-03-01T08:41:36;1.70;99.90
5850;DHT22;2951;47.712;9.400;2023-03-01T08:44:03;1.70;99.90
5850;DHT22;2951;47.712;9.400;2023-03-01T08:46:30;1.70;99.90
5850;DHT22;2951;47.712;9.400;2023-03-01T08:48:58;1.80;99.90
5850;DHT22;2951;47.712;9.400;2023-03-01T08:51:25;1.80;99.90
5850;DHT22;2951;47.712;9.400;2023-03-01T08:53:52;1.70;99.90
5850;DHT22;2951;47.712;9.400;2023-03-01T08:56:19;1.80;99.90
5850;DHT22;2951;47.712;9.400;2023-03-01T08:58:46;1.80;99.90
5850;DHT22;2951;47.712;9.400;2023-03-01T09:01:14;1.80;99.90
5850;DHT22;2951;47.712;9.400;2023-03-01T09:03:41;1.70;99.90
5850;DHT22;2951;47.712;9.400;2023-03-01T09:06:09;1.60;99.90
5850;DHT22;2951;47.712;9.400;2023-03-01T09:08:39;1.70;99.90
5850;DHT22;2951;47.712;9.400;2023-03-01T09:11:07;1.70;99.90
5850;DHT22;2951;47.712;9.400;2023-03-01T09:13:33;1.70;99.90
5850;DHT22;2951;47.712;9.400;2023-03-01T09:16:01;1.70;99.90
5850;DHT22;2951;47.712;9.400;2023-03-01T09:18:28;1.80;99.90
5850;DHT22;2951;47.712;9.400;2023-03-01T09:21:05;1.80;99.90
5850;DHT22;2951;47.712;9.400;2023-03-01T09:23:35;1.80;99.90
5850;DHT22;2951;47.712;9.400;2023-03-01T09:26:03;1.70;99.90
5850;DHT22;2951;47.712;9.400;2023-03-01T09:28:29;1.70;99.90
5850;DHT22;2951;47.712;9.400;2023-03-01T09:30:59;1.70;99.90
5850;DHT22;2951;47.712;9.400;2023-03-01T09:33:27;1.80;99.90
5850;DHT22;2951;47.712;9.400;2023-03-01T09:36:01;1.90;99.90
5850;DHT22;2951;47.712;9.400;2023-03-01T09:38:29;1.90;99.90
5850;DHT22;2951;47.712;9.400;2023-03-01T09:40:56;1.90;99.90
5850;DHT22;2951;47.712;9.400;2023-03-01T09:43:27;1.80;99.90
5850;DHT22;2951;47.712;9.400;2023-03-01T09:46:03;1.80;99.90
5850;DHT22;2951;47.712;9.400;2023-03-01T09:48:33;1.80;99.90
5850;DHT22;2951;47.712;9.400;2023-03-01T09:51:02;1.80;99.90
5850;DHT22;2951;47.712;9.400;2023-03-01T09:53:32;1.90;99.90
5850;DHT22;2951;47.712;9.400;2023-03-01T09:58:33;1.80;99.90
5850;DHT22;2951;47.712;9.400;2023-03-01T10:03:43;1.90;99.90
5850;DHT22;2951;47.712;9.400;2023-03-01T10:06:23;1.90;99.90
5850;DHT22;2951;47.712;9.400;2023-03-01T10:11:30;2.10;99.90
5850;DHT22;2951;47.712;9.400;2023-03-01T10:16:48;2.10;99.90
5850;DHT22;2951;47.712;9.400;2023-03-01T10:19:28;2.10;99.90
5850;DHT22;2951;47.712;9.400;2023-03-01T10:21:56;2.00;99.90
5850;DHT22;2951;47.712;9.400;2023-03-01T10:24:24;1.90;99.90
5850;DHT22;2951;47.712;9.400;2023-03-01T10:26:53;2.00;99.90
5850;DHT22;2951;47.712;9.400;2023-03-01T10:29:23;2.00;99.90
5850;DHT22;2951;47.712;9.400;2023-03-01T10:31:51;1.90;99.90
5850;DHT22;2951;47.712;9.400;2023-03-01T10:34:19;2.10;99.90
5850;DHT22;2951;47.712;9.400;2023-03-01T10:36:48;2.00;99.90
5850;DHT22;2951;47.712;9.400;2023-03-01T10:39:19;2.10;99.90
5850;DHT22;2951;47.712;9.400;2023-03-01T10:41:56;1.90;99.90
5850;DHT22;2951;47.712;9.400;2023-03-01T10:44:45;2.00;99.90
5850;DHT22;2951;47.712;9.400;2023-03-01T10:47:24;2.20;99.90
5850;DHT22;2951;47.712;9.400;2023-03-01T10:49:58;2.20;99.90
5850;DHT22;2951;47.712;9.400;2023-03-01T10:52:28;2.00;99.90
5850;DHT22;2951;47.712;9.400;2023-03-01T10:54:57;2.00;99.90
5850;DHT22;2951;47.712;9.400;2023-03-01T10:57:37;2.10;99.90
5850;DHT22;2951;47.712;9.400;2023-03-01T11:00:17;2.10;99.90
5850;DHT22;2951;47.712;9.400;2023-03-01T11:02:49;2.10;99.90
5850;DHT22;2951;47.712;9.400;2023-03-01T11:05:25;2.20;99.90
5850;DHT22;2951;47.712;9.400;2023-03-01T11:07:53;2.10;99.90
5850;DHT22;2951;47.712;9.400;2023-03-01T11:10:25;2.10;99.90
5850;DHT22;2951;47.712;9.400;2023-03-01T11:12:52;2.20;99.90
5850;DHT22;2951;47.712;9.400;2023-03-01T11:15:26;2.20;99.90
5850;DHT22;2951;47.712;9.400;2023-03-01T11:17:53;2.40;99.90
5850;DHT22;2951;47.712;9.400;2023-03-01T11:20:35;2.40;99.90
5850;DHT22;2951;47.712;9.400;2023-03-01T11:23:03;2.20;99.90
5850;DHT22;2951;47.712;9.400;2023-03-01T11:25:34;2.20;99.90
5850;DHT22;2951;47.712;9.400;2023-03-01T11:28:03;2.30;99.90
5850;DHT22;2951;47.712;9.400;2023-03-01T11:30:32;2.30;99.90
5850;DHT22;2951;47.712;9.400;2023-03-01T11:33:03;2.20;99.90
5850;DHT22;2951;47.712;9.400;2023-03-01T11:35:32;2.20;99.90
5850;DHT22;2951;47.712;9.400;2023-03-01T11:40:27;2.30;99.90
5850;DHT22;2951;47.712;9.400;2023-03-01T11:42:59;2.30;99.90
5850;DHT22;2951;47.712;9.400;2023-03-01T11:45:29;2.30;99.90
5850;DHT22;2951;47.712;9.400;2023-03-01T11:50:49;2.40;99.90
5850;DHT22;2951;47.712;9.400;2023-03-01T12:08:51;2.50;99.90
5850;DHT22;2951;47.712;9.400;2023-03-01T12:24:40;2.30;99.90
5850;DHT22;2951;47.712;9.400;2023-03-01T12:32:30;2.60;99.90
5850;DHT22;2951;47.712;9.400;2023-03-01T12:48:13;2.60;99.90
5850;DHT22;2951;47.712;9.400;2023-03-01T12:50:47;2.50;99.90
5850;DHT22;2951;47.712;9.400;2023-03-01T12:55:52;2.40;99.90
5850;DHT22;2951;47.712;9.400;2023-03-01T12:58:32;2.40;99.90
5850;DHT22;2951;47.712;9.400;2023-03-01T13:09:19;2.70;99.90
5850;DHT22;2951;47.712;9.400;2023-03-01T13:11:49;2.90;99.90
5850;DHT22;2951;47.712;9.400;2023-03-01T13:16:52;2.90;99.90
5850;DHT22;2951;47.712;9.400;2023-03-01T13:19:20;2.80;99.90
5850;DHT22;2951;47.712;9.400;2023-03-01T13:21:48;2.90;99.90
5850;DHT22;2951;47.712;9.400;2023-03-01T13:24:25;2.80;99.90
5850;DHT22;2951;47.712;9.400;2023-03-01T13:37:43;3.10;99.90
5850;DHT22;2951;47.712;9.400;2023-03-01T13:42:51;3.10;99.90
5850;DHT22;2951;47.712;9.400;2023-03-01T13:45:39;3.20;99.90
5850;DHT22;2951;47.712;9.400;2023-03-01T13:48:20;3.20;99.90
5850;DHT22;2951;47.712;9.400;2023-03-01T13:50:53;3.10;99.90
5850;DHT22;2951;47.712;9.400;2023-03-01T13:53:24;3.10;99.90
5850;DHT22;2951;47.712;9.400;2023-03-01T13:55:56;3.10;99.90
5850;DHT22;2951;47.712;9.400;2023-03-01T13:58:27;3.20;99.90
5850;DHT22;2951;47.712;9.400;2023-03-01T14:01:04;3.20;99.90
5850;DHT22;2951;47.712;9.400;2023-03-01T14:03:32;3.20;99.90
5850;DHT22;2951;47.712;9.400;2023-03-01T14:08:38;3.30;99.90
5850;DHT22;2951;47.712;9.400;2023-03-01T14:11:19;3.20;99.90
5850;DHT22;2951;47.712;9.400;2023-03-01T14:16:38;3.00;99.90
5850;DHT22;2951;47.712;9.400;2023-03-01T14:21:30;3.10;99.90
5850;DHT22;2951;47.712;9.400;2023-03-01T14:23:57;3.00;99.90
5850;DHT22;2951;47.712;9.400;2023-03-01T14:26:24;3.00;99.90
5850;DHT22;2951;47.712;9.400;2023-03-01T14:28:51;3.10;99.90
5850;DHT22;2951;47.712;9.400;2023-03-01T14:34:21;3.20;99.90
5850;DHT22;2951;47.712;9.400;2023-03-01T14:36:48;3.20;99.90
5850;DHT22;2951;47.712;9.400;2023-03-01T14:39:19;3.30;99.90
5850;DHT22;2951;47.712;9.400;2023-03-01T14:41:49;3.30;99.90
5850;DHT22;2951;47.712;9.400;2023-03-01T14:44:22;3.10;99.90
5850;DHT22;2951;47.712;9.400;2023-03-01T14:46:51;3.10;99.90
5850;DHT22;2951;47.712;9.400;2023-03-01T14:49:19;3.10;99.90
5850;DHT22;2951;47.712;9.400;2023-03-01T14:51:52;3.10;99.90
5850;DHT22;2951;47.712;9.400;2023-03-01T14:54:21;3.10;99.90
5850;DHT22;2951;47.712;9.400;2023-03-01T14:56:50;3.10;99.90
5850;DHT22;2951;47.712;9.400;2023-03-01T14:59:23;3.20;99.90
5850;DHT22;2951;47.712;9.400;2023-03-01T15:01:51;3.30;99.90
5850;DHT22;2951;47.712;9.400;2023-03-01T15:04:19;3.20;99.90
5850;DHT22;2951;47.712;9.400;2023-03-01T15:06:47;3.10;99.90
5850;DHT22;2951;47.712;9.400;2023-03-01T15:09:16;3.00;99.90
5850;DHT22;2951;47.712;9.400;2023-03-01T15:11:43;3.00;99.90
5850;DHT22;2951;47.712;9.400;2023-03-01T15:16:55;2.80;99.90
5850;DHT22;2951;47.712;9.400;2023-03-01T15:19:22;2.80;99.90
5850;DHT22;2951;47.712;9.400;2023-03-01T15:21:50;2.70;99.90
5850;DHT22;2951;47.712;9.400;2023-03-01T15:24:19;2.70;99.90
5850;DHT22;2951;47.712;9.400;2023-03-01T15:26:50;2.80;99.90
5850;DHT22;2951;47.712;9.400;2023-03-01T15:29:24;2.90;99.90
5850;DHT22;2951;47.712;9.400;2023-03-01T15:32:01;3.00;99.90
5850;DHT22;2951;47.712;9.400;2023-03-01T15:34:31;3.30;99.90
5850;DHT22;2951;47.712;9.400;2023-03-01T15:36:59;3.50;99.90
5850;DHT22;2951;47.712;9.400;2023-03-01T15:39:30;3.60;99.90
5850;DHT22;2951;47.712;9.400;2023-03-01T15:41:57;3.50;99.90
5850;DHT22;2951;47.712;9.400;2023-03-01T15:44:45;3.50;99.90
5850;DHT22;2951;47.712;9.400;2023-03-01T15:47:24;3.40;99.90
5850;DHT22;2951;47.712;9.400;2023-03-01T15:49:52;3.60;99.90
5850;DHT22;2951;47.712;9.400;2023-03-01T15:54:47;3.50;99.90
5850;DHT22;2951;47.712;9.400;2023-03-01T15:57:14;3.50;99.90
5850;DHT22;2951;47.712;9.400;2023-03-01T15:59:41;3.40;99.90
5850;DHT22;2951;47.712;9.400;2023-03-01T16:02:11;3.50;99.90
5850;DHT22;2951;47.712;9.400;2023-03-01T16:04:39;3.50;99.90
5850;DHT22;2951;47.712;9.400;2023-03-01T16:07:05;3.40;99.90
5850;DHT22;2951;47.712;9.400;2023-03-01T16:09:32;3.60;99.90
5850;DHT22;2951;47.712;9.400;2023-03-01T16:11:59;3.60;99.90
5850;DHT22;2951;47.712;9.400;2023-03-01T16:14:25;3.70;99.90
5850;DHT22;2951;47.712;9.400;2023-03-01T16:16:52;3.70;99.90
5850;DHT22;2951;47.712;9.400;2023-03-01T16:19:19;3.60;99.90
5850;DHT22;2951;47.712;9.400;2023-03-01T16:21:46;3.70;99.90
5850;DHT22;2951;47.712;9.400;2023-03-01T16:24:14;3.60;99.90
5850;DHT22;2951;47.712;9.400;2023-03-01T16:26:41;3.30;99.90
5850;DHT22;2951;47.712;9.400;2023-03-01T16:29:08;3.10;99.90
5850;DHT22;2951;47.712;9.400;2023-03-01T16:31:35;3.10;99.90
5850;DHT22;2951;47.712;9.400;2023-03-01T16:34:02;2.90;99.90
5850;DHT22;2951;47.712;9.400;2023-03-01T16:36:28;2.80;99.90
5850;DHT22;2951;47.712;9.400;2023-03-01T16:38:57;2.70;99.90
5850;DHT22;2951;47.712;9.400;2023-03-01T16:41:24;2.60;99.90
5850;DHT22;2951;47.712;9.400;2023-03-01T16:43:51;2.60;99.90
5850;DHT22;2951;47.712;9.400;2023-03-01T16:46:22;2.50;99.90
5850;DHT22;2951;47.712;9.400;2023-03-01T16:48:49;2.50;99.90
5850;DHT22;2951;47.712;9.400;2023-03-01T16:51:16;2.40;99.90
5850;DHT22;2951;47.712;9.400;2023-03-01T16:53:43;2.40;99.90
5850;DHT22;2951;47.712;9.400;2023-03-01T16:56:12;2.40;99.90
5850;DHT22;2951;47.712;9.400;2023-03-01T16:58:39;2.40;99.90
5850;DHT22;2951;47.712;9.400;2023-03-01T17:03:33;2.40;99.90
5850;DHT22;2951;47.712;9.400;2023-03-01T17:06:03;2.40;99.90
5850;DHT22;2951;47.712;9.400;2023-03-01T17:08:30;2.40;99.90
5850;DHT22;2951;47.712;9.400;2023-03-01T17:11:07;2.50;99.90
5850;DHT22;2951;47.712;9.400;2023-03-01T17:13:35;2.50;99.90
5850;DHT22;2951;47.712;9.400;2023-03-01T17:16:02;2.50;99.90
5850;DHT22;2951;47.712;9.400;2023-03-01T17:18:29;2.50;99.90
5850;DHT22;2951;47.712;9.400;2023-03-01T17:20:55;2.50;99.90
5850;DHT22;2951;47.712;9.400;2023-03-01T17:23:22;2.60;99.90
5850;DHT22;2951;47.712;9.400;2023-03-01T17:25:49;2.60;99.90
5850;DHT22;2951;47.712;9.400;2023-03-01T17:28:15;2.60;99.90
5850;DHT22;2951;47.712;9.400;2023-03-01T17:30:42;2.60;99.90
5850;DHT22;2951;47.712;9.400;2023-03-01T17:33:10;2.50;99.90
5850;DHT22;2951;47.712;9.400;2023-03-01T17:35:37;2.50;99.90
5850;DHT22;2951;47.712;9.400;2023-03-01T17:38:04;2.50;99.90
5850;DHT22;2951;47.712;9.400;2023-03-01T17:40:31;2.40;99.90
5850;DHT22;2951;47.712;9.400;2023-03-01T17:42:58;2.40;99.90
5850;DHT22;2951;47.712;9.400;2023-03-01T17:45:24;2.50;99.90
5850;DHT22;2951;47.712;9.400;2023-03-01T17:47:51;2.50;99.90
5850;DHT22;2951;47.712;9.400;2023-03-01T17:50:17;2.50;99.90
5850;DHT22;2951;47.712;9.400;2023-03-01T17:52:44;2.60;99.90
5850;DHT22;2951;47.712;9.400;2023-03-01T17:55:11;2.60;99.90
5850;DHT22;2951;47.712;9.400;2023-03-01T17:57:38;2.60;99.90
5850;DHT22;2951;47.712;9.400;2023-03-01T18:00:06;2.70;99.90
5850;DHT22;2951;47.712;9.400;2023-03-01T18:02:35;2.70;99.90
5850;DHT22;2951;47.712;9.400;2023-03-01T18:05:01;2.70;99.90
5850;DHT22;2951;47.712;9.400;2023-03-01T18:07:28;2.70;99.90
5850;DHT22;2951;47.712;9.400;2023-03-01T18:09:55;2.70;99.90
5850;DHT22;2951;47.712;9.400;2023-03-01T18:12:21;2.70;99.90
5850;DHT22;2951;47.712;9.400;2023-03-01T18:14:48;2.70;99.90
5850;DHT22;2951;47.712;9.400;2023-03-01T18:17:22;2.70;99.90
5850;DHT22;2951;47.712;9.400;2023-03-01T18:19:49;2.70;99.90